Time;durP1;ratioP1;P1;durP2;ratioP2;P2;SDS_P1;SDS_P2;PMS_P1;PMS_P2;Temp;Humidity;BMP_temperature;BMP_pressure;BME280_temperature;BME280_humidity;BME280_pressure;Samples;Min_cycle;Max_cycle;Signal;HPM_P1;HPM_P2
2022/04/14 00:00:15;;;;;;;3.97;3.20;;;9.40;69.80;;;;;;6283006;28;20208;-47
2022/04/14 00:03:16;;;;;;;3.90;2.90;;;9.40;69.90;;;;;;6283074;28;20227;-47
2022/04/14 00:06:16;;;;;;;3.50;3.20;;;9.40;69.90;;;;;;6266364;28;20225;-45
2022/04/14 00:09:18;;;;;;;5.57;3.27;;;9.30;69.90;;;;;;6266312;28;20276;-46
2022/04/14 00:12:19;;;;;;;3.70;3.03;;;9.30;69.90;;;;;;6283351;28;20188;-48
2022/04/14 00:15:19;;;;;;;4.57;4.00;;;9.30;69.90;;;;;;6283229;28;20189;-47
2022/04/14 00:18:20;;;;;;;5.43;4.60;;;9.30;70.10;;;;;;6290756;28;20192;-46
2022/04/14 00:21:21;;;;;;;3.80;3.40;;;9.30;70.40;;;;;;6283260;28;20203;-49
2022/04/14 00:24:22;;;;;;;4.70;3.77;;;9.30;70.70;;;;;;6265724;28;20228;-47
2022/04/14 00:27:22;;;;;;;4.83;3.97;;;9.30;70.90;;;;;;6279885;28;20264;-46
2022/04/14 00:30:24;;;;;;;4.83;3.47;;;9.20;71.00;;;;;;6282079;28;20232;-47
2022/04/14 00:33:26;;;;;;;3.93;3.50;;;9.20;71.00;;;;;;6282450;28;20276;-46
2022/04/14 00:36:28;;;;;;;3.70;3.30;;;9.10;71.30;;;;;;6288561;28;20200;-46
2022/04/14 00:39:29;;;;;;;5.23;4.73;;;9.00;71.40;;;;;;6290806;28;20188;-46
2022/04/14 00:42:29;;;;;;;3.93;3.63;;;9.00;72.00;;;;;;6290364;28;20193;-47
2022/04/14 00:45:30;;;;;;;4.27;3.87;;;8.90;71.80;;;;;;6282374;28;20212;-47
2022/04/14 00:48:31;;;;;;;5.13;4.07;;;8.90;71.80;;;;;;6265382;28;20189;-52
2022/04/14 00:51:32;;;;;;;4.70;4.07;;;8.80;72.00;;;;;;6266687;28;20188;-50
2022/04/14 00:54:33;;;;;;;5.20;3.87;;;8.80;72.20;;;;;;6290082;28;20224;-47
2022/04/14 00:57:34;;;;;;;4.60;3.87;;;8.80;72.20;;;;;;6284350;28;20201;-46
2022/04/14 01:00:35;;;;;;;3.73;3.30;;;8.80;72.40;;;;;;6274631;28;20204;-46
2022/04/14 01:03:36;;;;;;;4.67;3.97;;;8.70;72.50;;;;;;6280904;28;20197;-46
2022/04/14 01:06:38;;;;;;;4.87;4.00;;;8.60;72.60;;;;;;6281927;28;20261;-46
2022/04/14 01:09:39;;;;;;;4.87;3.93;;;8.50;72.90;;;;;;6294369;28;20224;-47
2022/04/14 01:12:40;;;;;;;5.20;4.67;;;8.50;73.10;;;;;;6281452;28;20279;-47
2022/04/14 01:15:41;;;;;;;4.90;4.23;;;8.40;73.30;;;;;;6264966;28;20199;-45
2022/04/14 01:18:42;;;;;;;4.17;3.73;;;8.40;73.60;;;;;;6282114;28;20181;-46
2022/04/14 01:21:50;;;;;;;4.80;4.30;;;8.40;73.60;;;;;;6268936;28;20208;-47
2022/04/14 01:24:55;;;;;;;4.70;4.03;;;8.40;73.70;;;;;;6284584;28;20240;-46
2022/04/14 01:27:56;;;;;;;5.17;4.23;;;8.30;73.90;;;;;;6289995;28;20192;-46
2022/04/14 01:30:56;;;;;;;4.43;4.03;;;8.30;74.00;;;;;;6280607;28;20232;-46
2022/04/14 01:33:57;;;;;;;4.13;3.63;;;8.30;73.90;;;;;;6264958;28;20192;-47
2022/04/14 01:37:02;;;;;;;5.17;4.37;;;8.20;74.10;;;;;;6285985;28;20275;-46
2022/04/14 01:40:03;;;;;;;4.67;4.17;;;8.20;74.10;;;;;;6293246;28;20286;-46
2022/04/14 01:43:04;;;;;;;4.10;3.70;;;8.20;74.10;;;;;;6292643;28;20181;-47
2022/04/14 01:46:08;;;;;;;5.30;4.30;;;8.10;74.20;;;;;;6294295;28;20249;-46
2022/04/14 01:49:09;;;;;;;4.37;3.23;;;8.10;74.30;;;;;;6292536;28;20287;-45
2022/04/14 01:52:10;;;;;;;4.00;3.60;;;8.00;74.20;;;;;;6286451;28;20192;-48
2022/04/14 01:55:11;;;;;;;6.20;4.37;;;8.00;74.30;;;;;;6270003;28;20181;-46
2022/04/14 01:58:12;;;;;;;5.53;4.70;;;7.90;74.50;;;;;;6286433;28;20185;-48
2022/04/14 02:01:13;;;;;;;4.87;4.37;;;7.90;74.70;;;;;;6290483;28;20220;-50
2022/04/14 02:04:14;;;;;;;4.00;3.30;;;7.80;74.80;;;;;;6294032;28;20217;-46
2022/04/14 02:07:14;;;;;;;3.80;3.43;;;7.80;74.80;;;;;;6285692;28;20189;-46
2022/04/14 02:10:15;;;;;;;3.63;3.13;;;7.70;74.70;;;;;;6269033;28;20193;-46
2022/04/14 02:13:16;;;;;;;4.20;3.50;;;7.70;74.90;;;;;;6269483;28;20177;-48
2022/04/14 02:16:17;;;;;;;4.63;3.83;;;7.60;74.90;;;;;;6290281;28;20248;-46
2022/04/14 02:19:18;;;;;;;4.33;3.80;;;7.60;74.90;;;;;;6277156;28;20192;-46
2022/04/14 02:22:18;;;;;;;3.73;2.90;;;7.60;74.90;;;;;;6281770;28;20200;-49
2022/04/14 02:25:20;;;;;;;4.93;3.33;;;7.50;75.00;;;;;;6271433;28;20295;-48
2022/04/14 02:28:21;;;;;;;4.00;3.50;;;7.50;75.20;;;;;;6286622;28;20188;-49
2022/04/14 02:31:22;;;;;;;4.90;3.50;;;7.50;75.30;;;;;;6285158;28;20240;-45
2022/04/14 02:34:25;;;;;;;5.17;3.93;;;7.40;75.30;;;;;;6285583;28;20223;-46
2022/04/14 02:37:26;;;;;;;3.70;3.23;;;7.40;75.50;;;;;;6287281;28;20182;-46
2022/04/14 02:40:27;;;;;;;3.93;3.43;;;7.40;75.60;;;;;;6286440;28;20192;-48
2022/04/14 02:43:28;;;;;;;4.07;2.97;;;7.40;75.70;;;;;;6292480;28;20191;-46
2022/04/14 02:46:29;;;;;;;4.50;3.40;;;7.40;75.70;;;;;;6292726;28;20220;-46
2022/04/14 02:49:29;;;;;;;3.87;3.47;;;7.30;75.60;;;;;;6285399;28;20283;-49
2022/04/14 02:52:30;;;;;;;3.87;3.50;;;7.30;75.60;;;;;;6285803;28;20231;-48
2022/04/14 02:55:31;;;;;;;3.63;3.20;;;7.30;75.70;;;;;;6274540;28;20195;-46
2022/04/14 02:58:33;;;;;;;4.93;3.60;;;7.30;75.70;;;;;;6278910;28;20204;-47
2022/04/14 03:01:33;;;;;;;3.83;2.93;;;7.30;75.80;;;;;;6293152;28;20192;-50
2022/04/14 03:04:34;;;;;;;3.67;3.17;;;7.30;75.90;;;;;;6267166;28;20212;-47
2022/04/14 03:07:36;;;;;;;4.00;3.63;;;7.20;76.10;;;;;;6267744;28;20205;-49
2022/04/14 03:10:37;;;;;;;4.20;3.50;;;7.20;76.10;;;;;;6274988;28;20193;-46
2022/04/14 03:13:38;;;;;;;3.80;3.23;;;7.20;76.20;;;;;;6251140;28;20255;-50
2022/04/14 03:16:39;;;;;;;3.27;2.97;;;7.20;76.20;;;;;;6251598;28;20251;-48
2022/04/14 03:19:40;;;;;;;3.20;2.90;;;7.20;76.30;;;;;;6284099;28;20192;-48
2022/04/14 03:22:41;;;;;;;3.37;2.97;;;7.10;76.40;;;;;;6284086;28;20201;-45
2022/04/14 03:25:42;;;;;;;3.50;3.20;;;7.20;76.40;;;;;;6274865;28;20279;-45
2022/04/14 03:28:43;;;;;;;3.67;3.37;;;7.10;76.50;;;;;;6292288;28;20203;-45
2022/04/14 03:31:44;;;;;;;3.63;3.33;;;7.20;76.60;;;;;;6283622;28;20232;-48
2022/04/14 03:34:44;;;;;;;7.23;4.40;;;7.10;76.70;;;;;;6267175;28;20200;-49
2022/04/14 03:37:45;;;;;;;4.00;3.60;;;7.10;76.90;;;;;;6267158;28;20200;-46
2022/04/14 03:40:46;;;;;;;4.30;3.20;;;7.00;76.70;;;;;;6284020;28;20185;-45
2022/04/14 03:43:47;;;;;;;4.63;3.80;;;7.00;76.80;;;;;;6267085;28;20211;-47
2022/04/14 03:46:48;;;;;;;3.77;3.30;;;6.90;76.80;;;;;;6283899;28;20268;-47
2022/04/14 03:49:49;;;;;;;3.80;3.43;;;6.90;76.80;;;;;;6290823;28;20251;-46
2022/04/14 03:52:50;;;;;;;3.80;3.37;;;6.90;76.80;;;;;;6292027;28;20188;-46
2022/04/14 03:55:51;;;;;;;3.03;2.70;;;6.80;76.70;;;;;;6283017;28;20216;-47
2022/04/14 03:58:52;;;;;;;3.47;3.13;;;6.80;76.70;;;;;;6283253;28;20217;-47
2022/04/14 04:01:52;;;;;;;3.53;3.17;;;6.80;76.60;;;;;;6284806;28;20287;-46
2022/04/14 04:04:53;;;;;;;3.33;2.80;;;6.70;76.90;;;;;;6290155;28;20213;-46
2022/04/14 04:07:54;;;;;;;4.07;3.63;;;6.70;77.00;;;;;;6290526;28;20197;-46
2022/04/14 04:10:55;;;;;;;3.37;3.07;;;6.70;77.20;;;;;;6274419;28;20195;-46
2022/04/14 04:13:55;;;;;;;4.30;2.87;;;6.60;77.30;;;;;;6291420;28;20184;-46
2022/04/14 04:16:56;;;;;;;4.57;2.80;;;6.60;77.40;;;;;;6291115;28;20199;-48
2022/04/14 04:19:57;;;;;;;4.00;3.53;;;6.60;77.60;;;;;;6291074;28;20201;-47
2022/04/14 04:22:58;;;;;;;4.93;3.73;;;6.60;77.60;;;;;;6291017;28;20275;-46
2022/04/14 04:25:59;;;;;;;3.50;3.20;;;6.60;78.00;;;;;;6281909;28;20220;-48
2022/04/14 04:28:59;;;;;;;4.30;3.90;;;6.60;78.10;;;;;;6265854;28;20308;-47
2022/04/14 04:32:00;;;;;;;6.23;3.50;;;6.60;78.20;;;;;;6234775;28;20257;-46
2022/04/14 04:35:03;;;;;;;3.77;3.23;;;6.60;78.20;;;;;;6249259;28;20198;-44
2022/04/14 04:38:04;;;;;;;4.37;3.97;;;6.60;78.20;;;;;;6232807;28;20196;-45
2022/04/14 04:41:05;;;;;;;3.63;3.10;;;6.50;78.40;;;;;;6216822;28;20203;-45
2022/04/14 04:44:06;;;;;;;3.67;3.37;;;6.60;78.30;;;;;;6241710;28;20198;-46
2022/04/14 04:47:07;;;;;;;4.13;2.83;;;6.50;78.30;;;;;;6232147;28;20255;-47
2022/04/14 04:50:08;;;;;;;3.97;3.20;;;6.50;78.30;;;;;;6236323;28;20198;-48
2022/04/14 04:53:09;;;;;;;5.47;3.90;;;6.50;78.30;;;;;;6237543;28;20216;-47
2022/04/14 04:56:10;;;;;;;5.10;3.73;;;6.50;78.50;;;;;;6236708;28;20200;-47
2022/04/14 04:59:11;;;;;;;5.47;3.80;;;6.50;78.50;;;;;;6267587;28;20189;-47
2022/04/14 05:02:12;;;;;;;4.00;3.40;;;6.50;78.30;;;;;;6220067;28;20195;-46
2022/04/14 05:05:13;;;;;;;3.93;3.53;;;6.60;78.10;;;;;;6237700;28;20225;-46
2022/04/14 05:08:13;;;;;;;4.00;3.60;;;6.60;78.00;;;;;;6254021;28;20197;-46
2022/04/14 05:11:15;;;;;;;5.20;3.67;;;6.60;77.90;;;;;;6241483;28;20190;-47
2022/04/14 05:14:16;;;;;;;3.30;2.93;;;6.60;77.90;;;;;;6237558;28;20221;-48
2022/04/14 05:17:18;;;;;;;5.73;4.07;;;6.60;77.90;;;;;;6246574;28;20204;-45
2022/04/14 05:20:19;;;;;;;4.47;3.77;;;6.70;78.10;;;;;;6230748;28;20252;-49
2022/04/14 05:23:19;;;;;;;3.90;3.60;;;6.70;78.10;;;;;;6236002;28;20216;-46
2022/04/14 05:26:20;;;;;;;5.37;3.70;;;6.70;78.20;;;;;;6229800;28;20234;-47
2022/04/14 05:29:21;;;;;;;4.60;3.80;;;6.70;78.40;;;;;;6254069;28;20193;-47
2022/04/14 05:32:22;;;;;;;3.90;3.40;;;6.80;78.70;;;;;;6262867;28;20246;-46
2022/04/14 05:35:23;;;;;;;3.80;3.43;;;6.80;78.80;;;;;;6249082;28;20192;-47
2022/04/14 05:38:24;;;;;;;4.03;3.63;;;6.80;79.10;;;;;;6272556;28;20293;-46
2022/04/14 05:41:25;;;;;;;4.33;3.73;;;6.90;79.20;;;;;;6270731;28;20197;-46
2022/04/14 05:44:26;;;;;;;4.50;4.10;;;6.90;79.30;;;;;;6284337;28;20234;-46
2022/04/14 05:47:27;;;;;;;4.40;3.53;;;7.00;79.50;;;;;;6284791;28;20215;-46
2022/04/14 05:50:28;;;;;;;3.67;3.37;;;7.10;79.50;;;;;;6283117;28;20195;-50
2022/04/14 05:53:30;;;;;;;4.13;3.13;;;7.10;79.60;;;;;;6270175;28;20196;-47
2022/04/14 05:56:31;;;;;;;3.83;3.53;;;7.20;79.60;;;;;;6273554;28;20197;-46
2022/04/14 05:59:32;;;;;;;4.00;3.40;;;7.30;79.70;;;;;;6270985;28;20199;-45
2022/04/14 06:02:33;;;;;;;4.43;4.03;;;7.30;79.70;;;;;;6264764;28;20199;-47
2022/04/14 06:05:34;;;;;;;3.57;3.10;;;7.30;79.80;;;;;;6264253;28;20247;-45
2022/04/14 06:08:35;;;;;;;3.23;2.93;;;7.50;79.70;;;;;;6288668;28;20196;-47
2022/04/14 06:11:36;;;;;;;2.97;2.67;;;7.50;79.60;;;;;;6271798;28;20188;-46
2022/04/14 06:14:36;;;;;;;3.50;3.20;;;7.60;79.60;;;;;;6272763;28;20197;-46
2022/04/14 06:17:37;;;;;;;4.00;3.40;;;7.70;79.50;;;;;;6284990;28;20609;-46
2022/04/14 06:20:38;;;;;;;4.33;3.83;;;7.80;79.40;;;;;;6285129;28;20213;-48
2022/04/14 06:23:39;;;;;;;5.07;4.10;;;7.80;79.30;;;;;;6267193;28;20201;-51
2022/04/14 06:26:39;;;;;;;4.27;3.73;;;8.00;79.00;;;;;;6272460;28;20226;-49
2022/04/14 06:29:40;;;;;;;3.60;3.27;;;8.10;78.90;;;;;;6291841;28;20244;-49
2022/04/14 06:32:41;;;;;;;5.70;4.10;;;8.20;78.80;;;;;;6284428;28;20185;-50
2022/04/14 06:35:43;;;;;;;3.83;3.53;;;8.30;78.60;;;;;;6285414;28;20189;-46
2022/04/14 06:38:44;;;;;;;5.50;4.83;;;8.30;78.40;;;;;;6273211;28;20196;-46
2022/04/14 06:41:44;;;;;;;4.67;4.17;;;8.40;78.00;;;;;;6283200;28;20722;-48
2022/04/14 06:44:45;;;;;;;4.33;3.93;;;8.60;77.90;;;;;;6271164;28;20238;-45
2022/04/14 06:47:46;;;;;;;3.73;3.43;;;8.70;77.60;;;;;;6275050;28;20300;-46
2022/04/14 06:50:47;;;;;;;8.23;5.63;;;8.80;77.40;;;;;;6290445;28;20211;-49
2022/04/14 06:53:48;;;;;;;5.87;4.10;;;8.80;77.40;;;;;;6270101;28;20193;-46
2022/04/14 06:56:48;;;;;;;4.87;3.73;;;9.00;77.30;;;;;;6258747;28;20196;-45
2022/04/14 06:59:49;;;;;;;4.77;4.37;;;9.00;77.00;;;;;;6269928;28;20204;-47
2022/04/14 07:02:52;;;;;;;3.50;3.20;;;9.20;76.80;;;;;;6279377;28;20245;-46
2022/04/14 07:05:56;;;;;;;4.80;3.23;;;9.30;76.60;;;;;;6308657;28;20227;-45
2022/04/14 07:08:57;;;;;;;4.13;3.17;;;9.30;76.40;;;;;;6288671;28;20193;-46
2022/04/14 07:12:02;;;;;;;3.53;3.17;;;9.40;76.00;;;;;;6282912;28;20196;-46
2022/04/14 07:15:03;;;;;;;4.07;3.30;;;9.60;75.40;;;;;;6283865;28;20208;-45
2022/04/14 07:18:04;;;;;;;3.23;2.93;;;9.60;75.00;;;;;;6282193;28;20188;-47
2022/04/14 07:21:05;;;;;;;3.50;3.20;;;9.80;74.60;;;;;;6267653;28;20196;-48
2022/04/14 07:24:06;;;;;;;3.17;2.73;;;9.80;74.00;;;;;;6278929;28;20697;-47
2022/04/14 07:27:07;;;;;;;4.87;4.03;;;9.90;73.60;;;;;;6273240;28;20196;-47
2022/04/14 07:30:09;;;;;;;4.73;3.87;;;10.00;70.70;;;;;;6285112;28;20240;-49
2022/04/14 07:33:10;;;;;;;4.83;4.30;;;10.20;71.00;;;;;;6280560;28;20197;-52
2022/04/14 07:36:12;;;;;;;9.00;4.43;;;10.30;69.10;;;;;;6283030;28;20237;-55
2022/04/14 07:39:13;;;;;;;5.43;4.30;;;10.50;68.20;;;;;;6292501;28;20246;-50
2022/04/14 07:42:14;;;;;;;3.60;3.00;;;10.60;68.40;;;;;;6291873;28;20206;-50
2022/04/14 07:45:15;;;;;;;5.83;4.87;;;10.80;68.30;;;;;;6282883;28;20230;-51
2022/04/14 07:48:16;;;;;;;7.87;5.53;;;10.90;67.00;;;;;;6286652;28;20188;-53
2022/04/14 07:51:17;;;;;;;9.70;5.27;;;11.20;65.40;;;;;;6266868;28;20307;-50
2022/04/14 07:54:18;;;;;;;7.37;4.50;;;11.40;65.00;;;;;;6269281;28;20189;-49
2022/04/14 07:57:18;;;;;;;5.47;4.30;;;11.70;63.10;;;;;;6272718;28;20211;-50
2022/04/14 08:00:20;;;;;;;6.87;5.07;;;11.90;62.30;;;;;;6276441;28;20279;-51
2022/04/14 08:03:21;;;;;;;10.83;4.67;;;12.00;62.70;;;;;;6274597;28;20201;-50
2022/04/14 08:06:25;;;;;;;7.33;4.47;;;12.10;61.20;;;;;;6290935;28;20239;-50
2022/04/14 08:09:26;;;;;;;5.97;4.93;;;12.30;60.10;;;;;;6273808;28;20246;-48
2022/04/14 08:12:29;;;;;;;7.23;4.67;;;12.40;60.50;;;;;;6299306;28;20188;-49
2022/04/14 08:15:31;;;;;;;6.17;4.27;;;12.70;59.50;;;;;;6270176;28;20223;-52
2022/04/14 08:18:33;;;;;;;8.10;4.77;;;12.80;59.50;;;;;;6283402;28;20219;-49
2022/04/14 08:21:34;;;;;;;5.50;4.47;;;12.80;58.40;;;;;;6283261;28;20280;-48
2022/04/14 08:24:35;;;;;;;5.77;4.53;;;13.00;58.80;;;;;;6274303;28;20223;-48
2022/04/14 08:27:36;;;;;;;7.27;4.40;;;13.20;58.40;;;;;;6273969;28;20193;-50
2022/04/14 08:30:37;;;;;;;4.90;4.33;;;13.20;58.40;;;;;;6264483;28;20241;-48
2022/04/14 08:33:38;;;;;;;7.67;5.10;;;13.40;57.50;;;;;;6285878;28;20279;-53
2022/04/14 08:36:40;;;;;;;7.13;4.80;;;13.70;57.20;;;;;;6246927;28;20218;-50
2022/04/14 08:39:40;;;;;;;6.00;4.53;;;14.10;55.30;;;;;;6276794;28;20212;-52
2022/04/14 08:42:49;;;;;;;7.00;4.43;;;14.20;54.80;;;;;;6275669;28;20231;-50
2022/04/14 08:45:51;;;;;;;7.00;5.10;;;14.30;55.30;;;;;;6301167;28;20221;-49
2022/04/14 08:48:55;;;;;;;7.57;5.30;;;14.40;54.40;;;;;;6290329;28;20220;-48
2022/04/14 08:51:56;;;;;;;5.93;4.57;;;14.50;55.80;;;;;;6285336;28;20197;-51
2022/04/14 08:54:58;;;;;;;7.77;4.83;;;14.60;55.30;;;;;;6283397;28;20193;-49
2022/04/14 08:58:00;;;;;;;6.83;4.73;;;14.60;52.60;;;;;;6286953;28;20196;-49
2022/04/14 09:01:01;;;;;;;6.60;4.67;;;14.80;51.90;;;;;;6301801;28;20184;-51
2022/04/14 09:04:05;;;;;;;8.07;4.73;;;14.80;52.70;;;;;;6271551;28;20198;-52
2022/04/14 09:07:06;;;;;;;4.90;4.23;;;15.00;52.60;;;;;;6264797;28;20194;-49
2022/04/14 09:10:08;;;;;;;5.20;4.40;;;15.10;51.20;;;;;;6265530;28;20196;-49
2022/04/14 09:13:12;;;;;;;6.60;5.23;;;15.30;52.20;;;;;;6294741;28;20188;-52
2022/04/14 09:16:13;;;;;;;8.33;4.83;;;15.40;50.80;;;;;;6287704;28;20258;-48
2022/04/14 09:19:15;;;;;;;7.13;5.00;;;15.50;51.20;;;;;;6264460;28;20200;-49
2022/04/14 09:22:15;;;;;;;8.43;5.10;;;15.70;52.30;;;;;;6272745;28;20193;-51
2022/04/14 09:25:21;;;;;;;6.30;4.70;;;15.80;50.40;;;;;;6270316;28;20220;-49
2022/04/14 09:28:22;;;;;;;6.30;4.93;;;15.90;51.70;;;;;;6278321;28;20292;-52
2022/04/14 09:31:23;;;;;;;7.03;5.07;;;16.00;50.50;;;;;;6267187;28;20231;-49
2022/04/14 09:34:48;;;;;;;9.50;5.60;;;16.00;50.10;;;;;;6269785;28;20192;-52
2022/04/14 09:38:06;;;;;;;9.07;6.20;;;16.00;48.80;;;;;;6289797;28;20198;-47
2022/04/14 09:41:45;;;;;;;8.13;5.77;;;16.20;49.60;;;;;;6286684;28;20248;-50
2022/04/14 09:44:46;;;;;;;6.80;5.40;;;16.30;49.00;;;;;;6288280;28;20218;-50
2022/04/14 09:47:49;;;;;;;7.80;5.50;;;16.30;50.90;;;;;;6267242;28;20266;-51
2022/04/14 09:50:50;;;;;;;7.70;5.50;;;16.40;49.40;;;;;;6272399;28;20186;-49
2022/04/14 09:54:01;;;;;;;5.77;4.40;;;16.40;49.40;;;;;;6269895;28;20201;-49
2022/04/14 09:57:02;;;;;;;5.93;5.33;;;16.40;50.20;;;;;;6266330;28;20200;-51
2022/04/14 10:00:04;;;;;;;5.73;5.20;;;16.50;49.90;;;;;;6277899;28;20228;-51
2022/04/14 10:03:18;;;;;;;6.37;5.27;;;16.70;50.60;;;;;;6281909;28;20261;-50
2022/04/14 10:06:19;;;;;;;6.33;4.70;;;16.80;48.20;;;;;;6296349;28;20224;-48
2022/04/14 10:09:40;;;;;;;7.60;5.43;;;16.80;49.00;;;;;;6275049;28;20199;-48
2022/04/14 10:12:40;;;;;;;10.10;5.87;;;17.00;48.90;;;;;;6289914;28;20649;-50
2022/04/14 10:15:46;;;;;;;6.83;5.93;;;17.10;49.00;;;;;;6274312;28;20263;-51
2022/04/14 10:18:48;;;;;;;7.03;5.20;;;17.10;47.50;;;;;;6294463;28;20217;-51
2022/04/14 10:21:50;;;;;;;6.63;4.80;;;17.20;48.60;;;;;;6285872;28;20193;-50
2022/04/14 10:24:53;;;;;;;9.47;4.90;;;17.30;49.00;;;;;;6268937;28;20225;-48
2022/04/14 10:27:57;;;;;;;4.87;4.30;;;17.50;47.70;;;;;;6268963;28;20201;-51
2022/04/14 10:30:59;;;;;;;6.13;5.20;;;17.50;48.60;;;;;;6285225;28;20237;-48
2022/04/14 10:34:07;;;;;;;6.33;4.70;;;17.50;47.00;;;;;;6297220;28;20268;-50
2022/04/14 10:37:10;;;;;;;7.20;5.37;;;17.60;48.60;;;;;;6307890;28;20256;-51
2022/04/14 10:40:12;;;;;;;6.97;4.70;;;17.80;48.60;;;;;;6290086;28;20186;-49
2022/04/14 10:43:17;;;;;;;7.07;5.07;;;17.80;49.50;;;;;;6291921;28;20191;-50
2022/04/14 10:46:31;;;;;;;5.43;4.93;;;17.80;48.10;;;;;;6288078;28;20252;-50
2022/04/14 10:49:33;;;;;;;10.20;7.20;;;18.00;46.40;;;;;;6310084;28;20165;-52
2022/04/14 10:52:34;;;;;;;9.53;6.23;;;18.10;46.10;;;;;;6293398;28;20194;-52
2022/04/14 10:55:46;;;;;;;6.30;5.67;;;18.00;46.20;;;;;;6306300;28;20188;-50
2022/04/14 10:58:50;;;;;;;5.63;4.70;;;18.10;48.60;;;;;;6305986;28;20236;-52
2022/04/14 11:01:52;;;;;;;8.03;5.53;;;18.20;46.40;;;;;;6301176;28;20246;-50
2022/04/14 11:04:53;;;;;;;6.20;5.60;;;18.30;48.10;;;;;;6284280;28;20228;-50
2022/04/14 11:08:20;;;;;;;11.13;5.20;;;18.30;45.90;;;;;;6291643;28;20193;-50
2022/04/14 11:11:21;;;;;;;5.00;4.47;;;18.70;47.20;;;;;;6290549;28;20220;-50
2022/04/14 11:14:25;;;;;;;5.00;4.53;;;18.80;48.80;;;;;;6277061;28;20189;-49
2022/04/14 11:20:34;;;;;;;6.40;4.27;;;19.10;45.30;;;;;;6320447;28;20201;-48
2022/04/14 11:23:35;;;;;;;6.80;4.63;;;19.30;45.90;;;;;;6309176;28;20173;-49
2022/04/14 11:26:36;;;;;;;5.83;5.30;;;19.40;45.70;;;;;;6305423;28;20224;-48
2022/04/14 11:29:38;;;;;;;5.27;4.77;;;19.50;43.40;;;;;;6267141;28;20236;-49
2022/04/14 11:32:41;;;;;;;5.13;4.53;;;19.60;44.90;;;;;;6289913;28;20203;-47
2022/04/14 11:35:46;;;;;;;5.97;5.13;;;19.70;45.10;;;;;;6308923;28;20185;-47
2022/04/14 11:39:00;;;;;;;6.37;5.00;;;19.90;45.00;;;;;;6308644;28;20197;-51
2022/04/14 11:42:08;;;;;;;8.53;4.33;;;20.20;45.20;;;;;;6308993;28;20176;-48
2022/04/14 11:45:09;;;;;;;7.57;5.00;;;20.50;43.50;;;;;;6309075;28;20208;-48
2022/04/14 11:48:13;;;;;;;3.60;3.30;;;20.70;43.40;;;;;;6308204;28;20222;-49
2022/04/14 11:51:16;;;;;;;6.13;5.03;;;20.80;43.40;;;;;;6292590;28;20193;-52
2022/04/14 11:54:29;;;;;;;7.33;4.60;;;21.00;43.20;;;;;;6308509;28;20181;-50
2022/04/14 11:57:31;;;;;;;9.67;5.43;;;21.20;41.00;;;;;;6286208;28;20189;-50
2022/04/14 12:00:46;;;;;;;5.27;4.67;;;21.50;40.50;;;;;;6299535;28;20184;-49
2022/04/14 12:03:47;;;;;;;7.60;5.33;;;21.50;40.20;;;;;;6308186;28;20226;-49
2022/04/14 12:06:52;;;;;;;7.73;4.90;;;21.60;39.40;;;;;;6275141;28;20307;-49
2022/04/14 12:10:13;;;;;;;6.23;5.40;;;21.80;39.40;;;;;;6291173;28;20185;-47
2022/04/14 12:13:14;;;;;;;6.67;5.33;;;22.10;39.20;;;;;;6307472;28;20200;-50
2022/04/14 12:16:15;;;;;;;4.40;3.87;;;22.40;37.40;;;;;;6291379;28;20182;-51
2022/04/14 12:19:16;;;;;;;6.30;4.40;;;22.80;38.70;;;;;;6266132;28;20275;-47
2022/04/14 12:22:17;;;;;;;5.40;4.40;;;23.60;37.40;;;;;;6266327;28;20189;-52
2022/04/14 12:25:19;;;;;;;7.60;4.70;;;24.40;36.40;;;;;;6286544;28;20228;-47
2022/04/14 12:28:20;;;;;;;6.67;4.80;;;25.20;35.30;;;;;;6290534;28;20188;-51
2022/04/14 12:31:21;;;;;;;6.60;4.80;;;26.00;32.20;;;;;;6291124;28;20238;-49
2022/04/14 12:34:22;;;;;;;4.47;3.90;;;26.20;31.40;;;;;;6281851;28;20197;-53
2022/04/14 12:37:33;;;;;;;4.50;4.10;;;26.90;31.40;;;;;;6284501;28;20230;-52
2022/04/14 12:40:34;;;;;;;6.73;5.00;;;27.60;29.60;;;;;;6281276;28;20193;-50
2022/04/14 12:43:37;;;;;;;6.17;4.37;;;28.00;28.00;;;;;;6290395;28;20219;-49
2022/04/14 12:46:39;;;;;;;5.10;4.37;;;28.10;28.60;;;;;;6324919;28;20279;-48
2022/04/14 12:49:41;;;;;;;5.23;3.97;;;28.20;29.40;;;;;;6286870;28;20188;-52
2022/04/14 12:52:47;;;;;;;8.63;4.47;;;28.00;29.30;;;;;;6276998;28;20200;-50
2022/04/14 12:55:48;;;;;;;6.87;4.20;;;28.20;28.20;;;;;;6283810;28;20232;-50
2022/04/14 12:59:07;;;;;;;9.03;4.57;;;28.70;28.70;;;;;;6279255;28;20425;-49
2022/04/14 13:02:08;;;;;;;6.13;4.40;;;28.40;28.00;;;;;;6306875;28;20195;-49
2022/04/14 13:05:14;;;;;;;3.77;3.37;;;28.50;29.00;;;;;;6265753;28;20254;-52
2022/04/14 13:08:30;;;;;;;6.43;4.60;;;28.90;28.40;;;;;;6281831;28;20186;-51
2022/04/14 13:11:46;;;;;;;4.40;3.90;;;28.90;26.70;;;;;;6300959;28;20193;-53
2022/04/14 13:14:47;;;;;;;6.40;4.50;;;28.50;27.30;;;;;;6248899;28;20200;-50
2022/04/14 13:17:49;;;;;;;4.00;3.60;;;28.90;27.10;;;;;;6284667;28;20204;-45
2022/04/14 13:20:49;;;;;;;3.70;3.23;;;29.40;27.70;;;;;;6284558;28;20193;-51
2022/04/14 13:23:50;;;;;;;4.60;3.90;;;29.90;26.90;;;;;;6269044;28;20200;-47
2022/04/14 13:26:53;;;;;;;8.80;5.00;;;30.40;26.20;;;;;;6280336;28;20220;-48
2022/04/14 13:29:53;;;;;;;7.10;5.23;;;30.70;26.30;;;;;;6281338;28;20237;-49
2022/04/14 13:32:54;;;;;;;4.83;4.03;;;30.40;25.20;;;;;;6265277;28;20224;-50
2022/04/14 13:35:55;;;;;;;4.33;3.90;;;30.50;25.70;;;;;;6271293;28;20196;-62
2022/04/14 13:38:56;;;;;;;4.70;3.20;;;31.50;24.90;;;;;;6271803;28;20189;-71
2022/04/14 13:41:57;;;;;;;4.93;3.10;;;33.50;22.70;;;;;;6272882;28;20248;-71
2022/04/14 13:44:58;;;;;;;3.57;3.27;;;35.00;21.70;;;;;;6272942;28;20219;-69
2022/04/14 13:47:59;;;;;;;3.80;3.13;;;35.80;20.60;;;;;;6291846;28;20196;-68
2022/04/14 13:51:00;;;;;;;3.33;3.03;;;35.80;20.50;;;;;;6302736;28;20200;-71
2022/04/14 13:54:03;;;;;;;3.40;3.10;;;35.80;19.80;;;;;;6309509;28;20188;-71
2022/04/14 13:57:04;;;;;;;2.40;2.20;;;35.70;20.80;;;;;;6314638;28;20183;-60
2022/04/14 14:00:07;;;;;;;4.33;2.93;;;35.70;20.00;;;;;;6289905;28;20212;-60
2022/04/14 14:03:11;;;;;;;4.63;2.93;;;37.80;19.20;;;;;;6255561;28;20193;-60
2022/04/14 14:06:11;;;;;;;4.30;3.60;;;40.30;16.30;;;;;;6297604;28;20222;-60
2022/04/14 14:09:13;;;;;;;2.95;2.60;;;41.80;14.70;;;;;;6297569;28;20180;-60
2022/04/14 14:12:13;;;;;;;3.65;3.03;;;42.60;15.10;;;;;;6296926;28;20214;-60
2022/04/14 14:15:14;;;;;;;3.83;3.47;;;43.20;13.80;;;;;;6297562;28;20168;-60
2022/04/14 14:18:16;;;;;;;3.17;2.47;;;43.20;14.10;;;;;;6288939;28;20280;-60
2022/04/14 14:21:17;;;;;;;5.22;4.05;;;42.90;14.40;;;;;;6272609;28;20205;-60
2022/04/14 14:24:18;;;;;;;3.55;2.65;;;42.90;13.70;;;;;;6303715;28;20391;-60
2022/04/14 14:27:19;;;;;;;5.80;4.22;;;42.80;13.90;;;;;;6313883;28;20192;-68
2022/04/14 14:30:20;;;;;;;5.32;4.28;;;41.60;15.00;;;;;;6278612;28;20231;-70
2022/04/14 14:33:20;;;;;;;6.70;4.57;;;37.70;17.40;;;;;;6277310;28;20263;-70
2022/04/14 14:36:21;;;;;;;4.37;3.07;;;33.30;20.50;;;;;;6313903;28;20184;-65
2022/04/14 14:39:24;;;;;;;5.00;3.17;;;32.00;23.20;;;;;;6290252;28;20185;-63
2022/04/14 14:42:25;;;;;;;4.87;3.43;;;32.10;23.80;;;;;;6288875;28;20224;-69
2022/04/14 14:45:26;;;;;;;4.10;2.60;;;31.20;23.60;;;;;;6293735;28;20211;-73
2022/04/14 14:48:26;;;;;;;4.73;3.13;;;30.50;24.40;;;;;;6295543;28;20193;-73
2022/04/14 14:51:27;;;;;;;3.53;3.23;;;30.30;25.30;;;;;;6283719;28;20188;-67
2022/04/14 14:54:29;;;;;;;3.60;3.07;;;30.10;25.70;;;;;;6271542;28;20188;-68
2022/04/14 15:00:51;;;;;;;5.07;3.47;;;29.10;24.70;;;;;;6300182;28;20198;-69
2022/04/14 15:03:52;;;;;;;3.70;3.33;;;29.00;24.90;;;;;;6309213;28;20200;-69
2022/04/14 15:06:53;;;;;;;5.43;2.83;;;28.80;24.80;;;;;;6272839;28;20269;-71
2022/04/14 15:09:53;;;;;;;5.13;3.00;;;28.90;25.50;;;;;;6295407;28;20954;-71
2022/04/14 15:12:55;;;;;;;4.17;3.20;;;28.80;25.00;;;;;;6300816;28;20196;-69
2022/04/14 15:15:56;;;;;;;4.50;3.10;;;28.50;26.80;;;;;;6278746;28;20200;-70
2022/04/14 15:18:57;;;;;;;3.40;2.67;;;28.50;27.10;;;;;;6281370;28;20223;-69
2022/04/14 15:22:01;;;;;;;3.27;2.90;;;28.40;26.50;;;;;;6282585;28;20200;-69
2022/04/14 15:25:02;;;;;;;3.70;3.03;;;27.90;26.90;;;;;;6277183;28;20221;-69
2022/04/14 15:28:04;;;;;;;4.70;3.37;;;28.30;26.50;;;;;;6284277;28;20200;-71
2022/04/14 15:31:05;;;;;;;3.10;2.63;;;28.60;26.30;;;;;;6297082;28;20271;-69
2022/04/14 15:34:06;;;;;;;3.50;2.67;;;28.20;27.20;;;;;;6273731;28;20188;-69
2022/04/14 15:37:07;;;;;;;5.70;3.00;;;28.70;26.80;;;;;;6286086;28;20241;-70
2022/04/14 15:40:08;;;;;;;6.27;2.87;;;28.80;27.00;;;;;;6281369;28;20199;-70
2022/04/14 15:43:08;;;;;;;5.30;2.90;;;28.50;26.80;;;;;;6274801;28;20658;-72
2022/04/14 15:46:09;;;;;;;4.10;2.70;;;28.50;27.60;;;;;;6268529;28;20224;-70
2022/04/14 15:49:10;;;;;;;4.90;3.13;;;27.90;28.10;;;;;;6286990;28;20188;-70
2022/04/14 15:52:11;;;;;;;4.57;2.80;;;27.70;28.10;;;;;;6283215;28;20189;-70
2022/04/14 15:55:12;;;;;;;5.33;3.17;;;27.40;28.70;;;;;;6267115;28;20188;-70
2022/04/14 15:58:14;;;;;;;5.47;3.43;;;27.20;30.10;;;;;;6266979;28;20192;-69